sensor_id;sensor_type;location;lat;lon;timestamp;temperature;humidity
25582;DHT22;13462;50.764;4.332;2022-07-29T00:00:59;19.20;96.90
25582;DHT22;13462;50.764;4.332;2022-07-29T00:03:24;19.20;97.60
25582;DHT22;13462;50.764;4.332;2022-07-29T00:05:50;19.10;97.40
25582;DHT22;13462;50.764;4.332;2022-07-29T00:08:18;19.10;98.20
25582;DHT22;13462;50.764;4.332;2022-07-29T00:10:44;19.10;98.10
25582;DHT22;13462;50.764;4.332;2022-07-29T00:13:09;19.00;98.10
25582;DHT22;13462;50.764;4.332;2022-07-29T00:15:35;19.00;98.20
25582;DHT22;13462;50.764;4.332;2022-07-29T00:18:01;19.00;97.70
25582;DHT22;13462;50.764;4.332;2022-07-29T00:20:27;19.00;97.90
25582;DHT22;13462;50.764;4.332;2022-07-29T00:22:52;18.90;98.30
25582;DHT22;13462;50.764;4.332;2022-07-29T00:25:19;18.90;98.00
25582;DHT22;13462;50.764;4.332;2022-07-29T00:27:44;18.80;98.20
25582;DHT22;13462;50.764;4.332;2022-07-29T00:30:12;18.70;98.50
25582;DHT22;13462;50.764;4.332;2022-07-29T00:32:37;18.60;98.70
25582;DHT22;13462;50.764;4.332;2022-07-29T00:35:04;18.50;99.20
25582;DHT22;13462;50.764;4.332;2022-07-29T00:37:48;18.50;99.40
25582;DHT22;13462;50.764;4.332;2022-07-29T00:40:13;18.40;99.50
25582;DHT22;13462;50.764;4.332;2022-07-29T00:42:50;18.40;99.70
25582;DHT22;13462;50.764;4.332;2022-07-29T00:45:16;18.40;99.90
25582;DHT22;13462;50.764;4.332;2022-07-29T00:47:43;18.20;99.90
25582;DHT22;13462;50.764;4.332;2022-07-29T00:50:10;18.30;99.90
25582;DHT22;13462;50.764;4.332;2022-07-29T00:52:38;18.20;99.90
25582;DHT22;13462;50.764;4.332;2022-07-29T00:55:07;18.20;99.90
25582;DHT22;13462;50.764;4.332;2022-07-29T00:57:33;18.00;99.90
25582;DHT22;13462;50.764;4.332;2022-07-29T00:59:59;17.90;99.90
25582;DHT22;13462;50.764;4.332;2022-07-29T01:02:25;17.80;99.90
25582;DHT22;13462;50.764;4.332;2022-07-29T01:04:51;17.80;99.90
25582;DHT22;13462;50.764;4.332;2022-07-29T01:07:17;17.70;99.90
25582;DHT22;13462;50.764;4.332;2022-07-29T01:09:44;17.70;99.90
25582;DHT22;13462;50.764;4.332;2022-07-29T01:12:13;17.70;99.90
25582;DHT22;13462;50.764;4.332;2022-07-29T01:14:40;17.60;99.90
25582;DHT22;13462;50.764;4.332;2022-07-29T01:17:12;17.60;99.90
25582;DHT22;13462;50.764;4.332;2022-07-29T01:19:47;17.50;99.90
25582;DHT22;13462;50.764;4.332;2022-07-29T01:30:48;17.30;99.90
25582;DHT22;13462;50.764;4.332;2022-07-29T01:33:17;17.20;99.90
25582;DHT22;13462;50.764;4.332;2022-07-29T01:36:12;17.10;99.90
25582;DHT22;13462;50.764;4.332;2022-07-29T01:38:39;17.00;99.90
25582;DHT22;13462;50.764;4.332;2022-07-29T01:41:09;16.90;99.90
25582;DHT22;13462;50.764;4.332;2022-07-29T01:43:57;16.80;99.90
25582;DHT22;13462;50.764;4.332;2022-07-29T01:46:33;16.80;99.90
25582;DHT22;13462;50.764;4.332;2022-07-29T01:49:08;16.70;99.90
25582;DHT22;13462;50.764;4.332;2022-07-29T01:51:59;16.70;99.90
25582;DHT22;13462;50.764;4.332;2022-07-29T01:54:34;16.70;99.90
25582;DHT22;13462;50.764;4.332;2022-07-29T01:57:01;16.60;99.90
25582;DHT22;13462;50.764;4.332;2022-07-29T01:59:29;16.50;99.90
25582;DHT22;13462;50.764;4.332;2022-07-29T02:01:58;16.60;99.90
25582;DHT22;13462;50.764;4.332;2022-07-29T02:04:25;16.50;99.90
25582;DHT22;13462;50.764;4.332;2022-07-29T02:06:54;16.40;99.90
25582;DHT22;13462;50.764;4.332;2022-07-29T02:09:23;16.40;99.90
25582;DHT22;13462;50.764;4.332;2022-07-29T02:11:53;16.40;99.90
25582;DHT22;13462;50.764;4.332;2022-07-29T02:14:20;16.30;99.90
25582;DHT22;13462;50.764;4.332;2022-07-29T02:16:50;16.20;99.90
25582;DHT22;13462;50.764;4.332;2022-07-29T02:19:19;16.10;99.90
25582;DHT22;13462;50.764;4.332;2022-07-29T02:21:46;16.30;99.90
25582;DHT22;13462;50.764;4.332;2022-07-29T02:24:12;16.20;99.90
25582;DHT22;13462;50.764;4.332;2022-07-29T02:26:41;16.10;99.90
25582;DHT22;13462;50.764;4.332;2022-07-29T02:29:08;16.00;99.90
25582;DHT22;13462;50.764;4.332;2022-07-29T02:31:36;15.80;99.90
25582;DHT22;13462;50.764;4.332;2022-07-29T02:34:06;15.70;99.90
25582;DHT22;13462;50.764;4.332;2022-07-29T02:36:33;15.70;99.90
25582;DHT22;13462;50.764;4.332;2022-07-29T02:39:00;15.60;99.90
25582;DHT22;13462;50.764;4.332;2022-07-29T02:41:40;15.60;99.90
25582;DHT22;13462;50.764;4.332;2022-07-29T02:44:12;15.50;99.90
25582;DHT22;13462;50.764;4.332;2022-07-29T02:46:43;15.50;99.90
25582;DHT22;13462;50.764;4.332;2022-07-29T02:49:35;15.50;99.90
25582;DHT22;13462;50.764;4.332;2022-07-29T02:52:08;15.60;99.90
25582;DHT22;13462;50.764;4.332;2022-07-29T02:55:01;15.60;99.90
25582;DHT22;13462;50.764;4.332;2022-07-29T02:57:33;15.50;99.90
25582;DHT22;13462;50.764;4.332;2022-07-29T03:00:04;15.50;99.90
25582;DHT22;13462;50.764;4.332;2022-07-29T03:02:35;15.40;99.90
25582;DHT22;13462;50.764;4.332;2022-07-29T03:05:02;15.40;99.90
25582;DHT22;13462;50.764;4.332;2022-07-29T03:07:29;15.50;99.90
25582;DHT22;13462;50.764;4.332;2022-07-29T03:09:55;15.40;99.90
25582;DHT22;13462;50.764;4.332;2022-07-29T03:12:22;15.40;99.90
25582;DHT22;13462;50.764;4.332;2022-07-29T03:14:48;15.20;99.90
25582;DHT22;13462;50.764;4.332;2022-07-29T03:17:14;15.20;99.90
25582;DHT22;13462;50.764;4.332;2022-07-29T03:19:40;15.20;99.90
25582;DHT22;13462;50.764;4.332;2022-07-29T03:22:07;15.20;99.90
25582;DHT22;13462;50.764;4.332;2022-07-29T03:24:34;15.10;99.90
25582;DHT22;13462;50.764;4.332;2022-07-29T03:27:01;15.10;99.90
25582;DHT22;13462;50.764;4.332;2022-07-29T03:29:27;15.10;99.90
25582;DHT22;13462;50.764;4.332;2022-07-29T03:31:53;15.10;99.90
25582;DHT22;13462;50.764;4.332;2022-07-29T03:34:19;15.00;99.90
25582;DHT22;13462;50.764;4.332;2022-07-29T03:36:45;14.90;99.90
25582;DHT22;13462;50.764;4.332;2022-07-29T03:39:11;14.90;99.90
25582;DHT22;13462;50.764;4.332;2022-07-29T03:41:40;14.90;99.90
25582;DHT22;13462;50.764;4.332;2022-07-29T03:44:07;14.90;99.90
25582;DHT22;13462;50.764;4.332;2022-07-29T03:46:35;15.00;99.90
25582;DHT22;13462;50.764;4.332;2022-07-29T03:49:03;14.90;99.90
25582;DHT22;13462;50.764;4.332;2022-07-29T03:51:30;14.80;99.90
25582;DHT22;13462;50.764;4.332;2022-07-29T03:53:56;14.80;99.90
25582;DHT22;13462;50.764;4.332;2022-07-29T03:56:22;14.80;99.90
25582;DHT22;13462;50.764;4.332;2022-07-29T03:58:52;14.80;99.90
25582;DHT22;13462;50.764;4.332;2022-07-29T04:01:18;14.70;99.90
25582;DHT22;13462;50.764;4.332;2022-07-29T04:03:45;14.70;99.90
25582;DHT22;13462;50.764;4.332;2022-07-29T04:06:11;14.70;99.90
25582;DHT22;13462;50.764;4.332;2022-07-29T04:08:37;14.60;99.90
25582;DHT22;13462;50.764;4.332;2022-07-29T04:11:03;14.50;99.90
25582;DHT22;13462;50.764;4.332;2022-07-29T04:13:30;14.50;99.90
25582;DHT22;13462;50.764;4.332;2022-07-29T04:15:55;14.50;99.90
25582;DHT22;13462;50.764;4.332;2022-07-29T04:18:21;14.50;99.90
25582;DHT22;13462;50.764;4.332;2022-07-29T04:20:46;14.50;99.90
25582;DHT22;13462;50.764;4.332;2022-07-29T04:23:12;14.50;99.90
25582;DHT22;13462;50.764;4.332;2022-07-29T04:25:41;14.50;99.90
25582;DHT22;13462;50.764;4.332;2022-07-29T04:28:07;14.40;99.90
25582;DHT22;13462;50.764;4.332;2022-07-29T04:30:34;14.50;99.90
25582;DHT22;13462;50.764;4.332;2022-07-29T04:33:03;14.60;99.90
25582;DHT22;13462;50.764;4.332;2022-07-29T04:35:34;14.70;99.90
25582;DHT22;13462;50.764;4.332;2022-07-29T04:38:00;14.80;99.90
25582;DHT22;13462;50.764;4.332;2022-07-29T04:40:25;14.80;99.90
25582;DHT22;13462;50.764;4.332;2022-07-29T04:42:51;14.70;99.90
25582;DHT22;13462;50.764;4.332;2022-07-29T04:45:17;14.70;99.90
25582;DHT22;13462;50.764;4.332;2022-07-29T04:47:42;14.70;99.90
25582;DHT22;13462;50.764;4.332;2022-07-29T04:50:09;14.70;99.90
25582;DHT22;13462;50.764;4.332;2022-07-29T04:52:34;14.70;99.90
25582;DHT22;13462;50.764;4.332;2022-07-29T04:55:01;14.70;99.90
25582;DHT22;13462;50.764;4.332;2022-07-29T04:57:27;14.80;99.90
25582;DHT22;13462;50.764;4.332;2022-07-29T04:59:53;14.80;99.90
25582;DHT22;13462;50.764;4.332;2022-07-29T05:02:18;14.90;99.90
25582;DHT22;13462;50.764;4.332;2022-07-29T05:04:44;15.00;99.90
25582;DHT22;13462;50.764;4.332;2022-07-29T05:07:09;15.10;99.90
25582;DHT22;13462;50.764;4.332;2022-07-29T05:09:35;15.20;99.90
25582;DHT22;13462;50.764;4.332;2022-07-29T05:12:01;15.40;99.90
25582;DHT22;13462;50.764;4.332;2022-07-29T05:14:27;15.50;99.90
25582;DHT22;13462;50.764;4.332;2022-07-29T05:16:52;15.70;99.90
25582;DHT22;13462;50.764;4.332;2022-07-29T05:19:22;15.80;99.90
25582;DHT22;13462;50.764;4.332;2022-07-29T05:21:47;15.90;99.90
25582;DHT22;13462;50.764;4.332;2022-07-29T05:24:13;16.10;99.90
25582;DHT22;13462;50.764;4.332;2022-07-29T05:26:39;16.20;99.90
25582;DHT22;13462;50.764;4.332;2022-07-29T05:29:05;16.30;99.90
25582;DHT22;13462;50.764;4.332;2022-07-29T05:31:30;16.30;99.90
25582;DHT22;13462;50.764;4.332;2022-07-29T05:33:56;16.20;99.90
25582;DHT22;13462;50.764;4.332;2022-07-29T05:36:21;16.20;99.90
25582;DHT22;13462;50.764;4.332;2022-07-29T05:38:47;16.30;99.90
25582;DHT22;13462;50.764;4.332;2022-07-29T05:41:12;16.40;99.90
25582;DHT22;13462;50.764;4.332;2022-07-29T05:43:38;16.50;99.90
25582;DHT22;13462;50.764;4.332;2022-07-29T05:46:04;16.70;99.90
25582;DHT22;13462;50.764;4.332;2022-07-29T05:48:29;16.80;99.90
25582;DHT22;13462;50.764;4.332;2022-07-29T05:50:55;16.90;99.90
25582;DHT22;13462;50.764;4.332;2022-07-29T05:53:21;17.10;99.90
25582;DHT22;13462;50.764;4.332;2022-07-29T05:55:49;17.20;99.90
25582;DHT22;13462;50.764;4.332;2022-07-29T05:58:16;17.30;99.90
25582;DHT22;13462;50.764;4.332;2022-07-29T06:00:42;18.00;99.90
25582;DHT22;13462;50.764;4.332;2022-07-29T06:03:07;19.00;99.90
25582;DHT22;13462;50.764;4.332;2022-07-29T06:05:33;19.90;99.90
25582;DHT22;13462;50.764;4.332;2022-07-29T06:07:58;20.90;99.90
25582;DHT22;13462;50.764;4.332;2022-07-29T06:10:24;21.70;99.90
25582;DHT22;13462;50.764;4.332;2022-07-29T06:12:50;22.40;99.90
25582;DHT22;13462;50.764;4.332;2022-07-29T06:15:15;22.90;98.70
25582;DHT22;13462;50.764;4.332;2022-07-29T06:17:41;23.50;97.30
25582;DHT22;13462;50.764;4.332;2022-07-29T06:20:07;23.80;95.30
25582;DHT22;13462;50.764;4.332;2022-07-29T06:22:32;24.30;95.20
25582;DHT22;13462;50.764;4.332;2022-07-29T06:24:58;25.40;93.50
25582;DHT22;13462;50.764;4.332;2022-07-29T06:27:23;26.10;91.70
25582;DHT22;13462;50.764;4.332;2022-07-29T06:29:49;26.80;90.80
25582;DHT22;13462;50.764;4.332;2022-07-29T06:32:15;27.50;88.20
25582;DHT22;13462;50.764;4.332;2022-07-29T06:34:40;28.30;86.40
25582;DHT22;13462;50.764;4.332;2022-07-29T06:37:07;28.70;81.90
25582;DHT22;13462;50.764;4.332;2022-07-29T06:39:34;29.00;81.90
25582;DHT22;13462;50.764;4.332;2022-07-29T06:42:01;29.30;79.00
25582;DHT22;13462;50.764;4.332;2022-07-29T06:44:26;29.30;78.70
25582;DHT22;13462;50.764;4.332;2022-07-29T06:46:52;29.20;79.80
25582;DHT22;13462;50.764;4.332;2022-07-29T06:49:18;29.90;77.80
25582;DHT22;13462;50.764;4.332;2022-07-29T06:51:44;30.00;77.20
25582;DHT22;13462;50.764;4.332;2022-07-29T06:54:09;29.80;75.60
25582;DHT22;13462;50.764;4.332;2022-07-29T06:56:35;28.70;77.90
25582;DHT22;13462;50.764;4.332;2022-07-29T06:59:03;28.00;80.70
25582;DHT22;13462;50.764;4.332;2022-07-29T07:01:29;27.30;80.60
25582;DHT22;13462;50.764;4.332;2022-07-29T07:03:54;26.80;82.30
25582;DHT22;13462;50.764;4.332;2022-07-29T07:06:20;26.40;85.60
25582;DHT22;13462;50.764;4.332;2022-07-29T07:08:45;26.30;86.50
25582;DHT22;13462;50.764;4.332;2022-07-29T07:11:11;26.20;86.40
25582;DHT22;13462;50.764;4.332;2022-07-29T07:13:37;25.90;87.00
25582;DHT22;13462;50.764;4.332;2022-07-29T07:16:03;25.60;87.60
25582;DHT22;13462;50.764;4.332;2022-07-29T07:18:29;26.50;87.60
25582;DHT22;13462;50.764;4.332;2022-07-29T07:20:55;27.50;84.30
25582;DHT22;13462;50.764;4.332;2022-07-29T07:23:21;28.80;81.00
25582;DHT22;13462;50.764;4.332;2022-07-29T07:25:46;29.00;78.00
25582;DHT22;13462;50.764;4.332;2022-07-29T07:28:12;28.30;79.50
25582;DHT22;13462;50.764;4.332;2022-07-29T07:30:37;27.30;80.90
25582;DHT22;13462;50.764;4.332;2022-07-29T07:33:03;26.60;85.10
25582;DHT22;13462;50.764;4.332;2022-07-29T07:35:29;26.20;85.70
25582;DHT22;13462;50.764;4.332;2022-07-29T07:37:56;27.00;85.00
25582;DHT22;13462;50.764;4.332;2022-07-29T07:40:22;28.30;81.00
25582;DHT22;13462;50.764;4.332;2022-07-29T07:42:48;29.70;77.70
25582;DHT22;13462;50.764;4.332;2022-07-29T07:45:13;30.50;74.70
25582;DHT22;13462;50.764;4.332;2022-07-29T07:47:39;32.00;71.80
25582;DHT22;13462;50.764;4.332;2022-07-29T07:50:06;32.90;69.90
25582;DHT22;13462;50.764;4.332;2022-07-29T07:52:32;33.90;67.20
25582;DHT22;13462;50.764;4.332;2022-07-29T07:54:58;34.00;63.90
25582;DHT22;13462;50.764;4.332;2022-07-29T07:57:23;33.60;64.40
25582;DHT22;13462;50.764;4.332;2022-07-29T07:59:49;34.00;64.30
25582;DHT22;13462;50.764;4.332;2022-07-29T08:02:15;34.80;63.40
25582;DHT22;13462;50.764;4.332;2022-07-29T08:04:40;35.60;61.20
25582;DHT22;13462;50.764;4.332;2022-07-29T08:07:06;35.60;60.00
25582;DHT22;13462;50.764;4.332;2022-07-29T08:09:33;36.00;58.40
25582;DHT22;13462;50.764;4.332;2022-07-29T08:12:00;36.70;57.80
25582;DHT22;13462;50.764;4.332;2022-07-29T08:14:30;36.80;57.40
25582;DHT22;13462;50.764;4.332;2022-07-29T08:16:55;36.40;56.10
25582;DHT22;13462;50.764;4.332;2022-07-29T08:19:21;36.50;57.10
25582;DHT22;13462;50.764;4.332;2022-07-29T08:21:47;35.20;56.10
25582;DHT22;13462;50.764;4.332;2022-07-29T08:24:13;35.90;57.70
25582;DHT22;13462;50.764;4.332;2022-07-29T08:26:57;36.80;57.50
25582;DHT22;13462;50.764;4.332;2022-07-29T08:29:22;37.40;55.70
25582;DHT22;13462;50.764;4.332;2022-07-29T08:31:48;36.70;57.00
25582;DHT22;13462;50.764;4.332;2022-07-29T08:34:14;36.60;55.40
25582;DHT22;13462;50.764;4.332;2022-07-29T08:36:39;37.00;55.40
25582;DHT22;13462;50.764;4.332;2022-07-29T08:39:05;37.20;54.00
25582;DHT22;13462;50.764;4.332;2022-07-29T08:41:31;36.80;54.90
25582;DHT22;13462;50.764;4.332;2022-07-29T08:43:56;37.20;56.10
25582;DHT22;13462;50.764;4.332;2022-07-29T08:46:23;37.90;54.30
25582;DHT22;13462;50.764;4.332;2022-07-29T08:48:49;37.80;53.70
25582;DHT22;13462;50.764;4.332;2022-07-29T08:51:16;38.00;52.70
25582;DHT22;13462;50.764;4.332;2022-07-29T08:53:43;36.90;53.70
25582;DHT22;13462;50.764;4.332;2022-07-29T08:56:14;36.50;55.60
25582;DHT22;13462;50.764;4.332;2022-07-29T08:58:41;36.60;55.10
25582;DHT22;13462;50.764;4.332;2022-07-29T09:01:07;37.60;54.30
25582;DHT22;13462;50.764;4.332;2022-07-29T09:03:36;37.90;53.00
25582;DHT22;13462;50.764;4.332;2022-07-29T09:06:03;38.30;52.70
25582;DHT22;13462;50.764;4.332;2022-07-29T09:08:31;39.00;51.90
25582;DHT22;13462;50.764;4.332;2022-07-29T09:10:57;39.20;52.40
25582;DHT22;13462;50.764;4.332;2022-07-29T09:13:24;39.10;50.20
25582;DHT22;13462;50.764;4.332;2022-07-29T09:15:50;39.10;51.00
25582;DHT22;13462;50.764;4.332;2022-07-29T09:18:38;39.60;52.30
25582;DHT22;13462;50.764;4.332;2022-07-29T09:21:06;40.10;49.70
25582;DHT22;13462;50.764;4.332;2022-07-29T09:26:30;39.70;48.00
25582;DHT22;13462;50.764;4.332;2022-07-29T09:28:59;39.70;48.60
25582;DHT22;13462;50.764;4.332;2022-07-29T09:31:39;40.40;48.90
25582;DHT22;13462;50.764;4.332;2022-07-29T09:34:05;39.30;47.50
25582;DHT22;13462;50.764;4.332;2022-07-29T09:36:42;38.90;47.10
25582;DHT22;13462;50.764;4.332;2022-07-29T09:39:08;37.70;48.40
25582;DHT22;13462;50.764;4.332;2022-07-29T09:41:49;36.90;49.40
25582;DHT22;13462;50.764;4.332;2022-07-29T09:44:15;37.00;52.50
25582;DHT22;13462;50.764;4.332;2022-07-29T09:46:59;37.60;49.60
25582;DHT22;13462;50.764;4.332;2022-07-29T09:49:34;37.30;48.20
25582;DHT22;13462;50.764;4.332;2022-07-29T09:52:08;37.30;49.00
25582;DHT22;13462;50.764;4.332;2022-07-29T09:54:35;37.20;49.50
25582;DHT22;13462;50.764;4.332;2022-07-29T09:57:09;37.00;50.70
25582;DHT22;13462;50.764;4.332;2022-07-29T10:00:09;37.20;49.50
25582;DHT22;13462;50.764;4.332;2022-07-29T10:02:36;37.70;50.60
25582;DHT22;13462;50.764;4.332;2022-07-29T10:05:16;38.40;49.10
25582;DHT22;13462;50.764;4.332;2022-07-29T10:07:51;38.50;49.50
25582;DHT22;13462;50.764;4.332;2022-07-29T10:10:28;38.90;48.20
25582;DHT22;13462;50.764;4.332;2022-07-29T10:12:56;38.90;47.40
25582;DHT22;13462;50.764;4.332;2022-07-29T10:15:23;39.60;47.90
25582;DHT22;13462;50.764;4.332;2022-07-29T10:17:50;40.20;46.00
25582;DHT22;13462;50.764;4.332;2022-07-29T10:20:16;39.90;45.50
25582;DHT22;13462;50.764;4.332;2022-07-29T10:22:42;39.20;47.20
25582;DHT22;13462;50.764;4.332;2022-07-29T10:25:10;38.60;46.20
25582;DHT22;13462;50.764;4.332;2022-07-29T10:27:36;38.10;48.10
25582;DHT22;13462;50.764;4.332;2022-07-29T10:30:03;37.70;47.60
25582;DHT22;13462;50.764;4.332;2022-07-29T10:43:53;36.40;50.30
25582;DHT22;13462;50.764;4.332;2022-07-29T10:46:20;36.00;51.00
25582;DHT22;13462;50.764;4.332;2022-07-29T10:54:18;36.40;50.90
25582;DHT22;13462;50.764;4.332;2022-07-29T10:56:44;37.10;49.80
25582;DHT22;13462;50.764;4.332;2022-07-29T11:01:53;38.40;47.00
25582;DHT22;13462;50.764;4.332;2022-07-29T11:07:09;37.70;46.80
25582;DHT22;13462;50.764;4.332;2022-07-29T11:09:35;36.50;49.30
25582;DHT22;13462;50.764;4.332;2022-07-29T11:12:00;37.70;50.10
25582;DHT22;13462;50.764;4.332;2022-07-29T11:17:16;36.50;48.50
25582;DHT22;13462;50.764;4.332;2022-07-29T11:19:42;35.60;49.10
25582;DHT22;13462;50.764;4.332;2022-07-29T11:22:08;35.40;50.90
25582;DHT22;13462;50.764;4.332;2022-07-29T11:24:35;35.70;50.30
25582;DHT22;13462;50.764;4.332;2022-07-29T11:29:39;36.90;49.30
25582;DHT22;13462;50.764;4.332;2022-07-29T11:32:12;37.10;49.10
25582;DHT22;13462;50.764;4.332;2022-07-29T11:34:38;37.60;46.40
25582;DHT22;13462;50.764;4.332;2022-07-29T11:39:39;38.20;47.30
25582;DHT22;13462;50.764;4.332;2022-07-29T11:45:02;39.50;44.80
25582;DHT22;13462;50.764;4.332;2022-07-29T11:47:32;39.60;45.00
25582;DHT22;13462;50.764;4.332;2022-07-29T11:50:00;39.20;44.30
25582;DHT22;13462;50.764;4.332;2022-07-29T11:52:34;39.70;45.80
25582;DHT22;13462;50.764;4.332;2022-07-29T11:55:04;39.60;42.50
25582;DHT22;13462;50.764;4.332;2022-07-29T11:57:30;39.40;42.50
25582;DHT22;13462;50.764;4.332;2022-07-29T11:59:58;39.20;42.50
25582;DHT22;13462;50.764;4.332;2022-07-29T12:02:24;38.80;43.50
25582;DHT22;13462;50.764;4.332;2022-07-29T12:04:53;37.90;43.30
25582;DHT22;13462;50.764;4.332;2022-07-29T12:07:29;37.70;43.50
25582;DHT22;13462;50.764;4.332;2022-07-29T12:09:55;37.60;44.20
25582;DHT22;13462;50.764;4.332;2022-07-29T12:12:21;37.50;46.20
25582;DHT22;13462;50.764;4.332;2022-07-29T12:14:47;37.40;47.70
25582;DHT22;13462;50.764;4.332;2022-07-29T12:17:32;37.90;45.30
25582;DHT22;13462;50.764;4.332;2022-07-29T12:20:00;38.40;45.90
25582;DHT22;13462;50.764;4.332;2022-07-29T12:22:36;38.70;43.10
25582;DHT22;13462;50.764;4.332;2022-07-29T12:25:11;38.90;45.00
25582;DHT22;13462;50.764;4.332;2022-07-29T12:27:38;39.30;44.10
25582;DHT22;13462;50.764;4.332;2022-07-29T12:30:09;39.10;44.20
25582;DHT22;13462;50.764;4.332;2022-07-29T12:32:46;38.50;43.40
25582;DHT22;13462;50.764;4.332;2022-07-29T12:35:18;37.40;46.20
25582;DHT22;13462;50.764;4.332;2022-07-29T12:37:46;37.70;45.30
25582;DHT22;13462;50.764;4.332;2022-07-29T12:40:17;36.90;44.70
25582;DHT22;13462;50.764;4.332;2022-07-29T12:43:09;36.40;46.70
25582;DHT22;13462;50.764;4.332;2022-07-29T12:45:36;36.70;46.00
25582;DHT22;13462;50.764;4.332;2022-07-29T12:48:02;35.60;46.40
25582;DHT22;13462;50.764;4.332;2022-07-29T12:50:28;34.60;48.40
25582;DHT22;13462;50.764;4.332;2022-07-29T12:52:53;34.20;49.90
25582;DHT22;13462;50.764;4.332;2022-07-29T12:55:45;33.60;49.60
25582;DHT22;13462;50.764;4.332;2022-07-29T12:58:38;32.80;50.40
25582;DHT22;13462;50.764;4.332;2022-07-29T13:01:07;32.20;52.00
25582;DHT22;13462;50.764;4.332;2022-07-29T13:03:46;31.70;51.50
25582;DHT22;13462;50.764;4.332;2022-07-29T13:06:43;31.50;52.90
25582;DHT22;13462;50.764;4.332;2022-07-29T13:09:10;31.80;53.10
25582;DHT22;13462;50.764;4.332;2022-07-29T13:11:52;32.70;52.50
25582;DHT22;13462;50.764;4.332;2022-07-29T13:14:32;32.70;51.60
25582;DHT22;13462;50.764;4.332;2022-07-29T13:21:59;32.70;52.80
25582;DHT22;13462;50.764;4.332;2022-07-29T13:24:25;33.60;53.10
25582;DHT22;13462;50.764;4.332;2022-07-29T13:26:50;34.00;51.30
25582;DHT22;13462;50.764;4.332;2022-07-29T13:29:17;34.30;49.90
25582;DHT22;13462;50.764;4.332;2022-07-29T13:31:42;34.40;50.30
25582;DHT22;13462;50.764;4.332;2022-07-29T13:34:08;34.90;50.00
25582;DHT22;13462;50.764;4.332;2022-07-29T13:36:34;35.10;49.20
25582;DHT22;13462;50.764;4.332;2022-07-29T13:39:00;35.10;48.90
25582;DHT22;13462;50.764;4.332;2022-07-29T13:41:27;34.70;49.80
25582;DHT22;13462;50.764;4.332;2022-07-29T13:43:53;34.10;50.20
25582;DHT22;13462;50.764;4.332;2022-07-29T13:46:19;33.10;51.60
25582;DHT22;13462;50.764;4.332;2022-07-29T13:48:44;32.30;51.80
25582;DHT22;13462;50.764;4.332;2022-07-29T13:51:10;31.90;53.40
25582;DHT22;13462;50.764;4.332;2022-07-29T13:53:35;32.10;53.60
25582;DHT22;13462;50.764;4.332;2022-07-29T13:56:01;32.40;53.80
25582;DHT22;13462;50.764;4.332;2022-07-29T13:58:27;33.00;53.80
25582;DHT22;13462;50.764;4.332;2022-07-29T14:00:52;32.80;51.70
25582;DHT22;13462;50.764;4.332;2022-07-29T14:03:18;32.80;51.60
25582;DHT22;13462;50.764;4.332;2022-07-29T14:05:43;32.60;52.90
25582;DHT22;13462;50.764;4.332;2022-07-29T14:08:09;32.40;51.80
25582;DHT22;13462;50.764;4.332;2022-07-29T14:10:35;32.20;52.60
25582;DHT22;13462;50.764;4.332;2022-07-29T14:13:01;32.00;52.60
25582;DHT22;13462;50.764;4.332;2022-07-29T14:15:26;31.90;52.00
25582;DHT22;13462;50.764;4.332;2022-07-29T14:17:52;31.60;53.80
25582;DHT22;13462;50.764;4.332;2022-07-29T14:20:17;31.30;51.90
25582;DHT22;13462;50.764;4.332;2022-07-29T14:22:43;31.10;53.00
25582;DHT22;13462;50.764;4.332;2022-07-29T14:25:09;30.60;53.40
25582;DHT22;13462;50.764;4.332;2022-07-29T14:27:34;30.50;54.10
25582;DHT22;13462;50.764;4.332;2022-07-29T14:30:00;30.60;54.60
25582;DHT22;13462;50.764;4.332;2022-07-29T14:32:25;30.50;53.40
25582;DHT22;13462;50.764;4.332;2022-07-29T14:34:51;30.90;55.00
25582;DHT22;13462;50.764;4.332;2022-07-29T14:37:17;31.20;52.30
25582;DHT22;13462;50.764;4.332;2022-07-29T14:39:42;30.40;52.40
25582;DHT22;13462;50.764;4.332;2022-07-29T14:42:08;29.80;54.30
25582;DHT22;13462;50.764;4.332;2022-07-29T14:44:34;29.50;53.40
25582;DHT22;13462;50.764;4.332;2022-07-29T14:47:00;29.50;53.80
25582;DHT22;13462;50.764;4.332;2022-07-29T14:49:29;29.60;53.60
25582;DHT22;13462;50.764;4.332;2022-07-29T14:51:54;29.70;55.50
25582;DHT22;13462;50.764;4.332;2022-07-29T14:54:20;29.60;56.40
25582;DHT22;13462;50.764;4.332;2022-07-29T14:56:46;30.00;54.50
25582;DHT22;13462;50.764;4.332;2022-07-29T14:59:12;30.20;56.10
25582;DHT22;13462;50.764;4.332;2022-07-29T15:01:37;30.40;54.80
25582;DHT22;13462;50.764;4.332;2022-07-29T15:04:03;30.50;54.80
25582;DHT22;13462;50.764;4.332;2022-07-29T15:06:29;30.40;55.60
25582;DHT22;13462;50.764;4.332;2022-07-29T15:08:54;30.40;54.50
25582;DHT22;13462;50.764;4.332;2022-07-29T15:11:20;30.30;55.00
25582;DHT22;13462;50.764;4.332;2022-07-29T15:13:46;30.00;55.60
25582;DHT22;13462;50.764;4.332;2022-07-29T15:16:11;30.10;55.80
25582;DHT22;13462;50.764;4.332;2022-07-29T15:18:37;30.20;54.40
25582;DHT22;13462;50.764;4.332;2022-07-29T15:21:04;30.00;54.50
25582;DHT22;13462;50.764;4.332;2022-07-29T15:23:31;29.80;55.40
25582;DHT22;13462;50.764;4.332;2022-07-29T15:25:57;29.90;56.00
25582;DHT22;13462;50.764;4.332;2022-07-29T15:28:22;30.00;54.80
25582;DHT22;13462;50.764;4.332;2022-07-29T15:30:48;30.00;55.60
25582;DHT22;13462;50.764;4.332;2022-07-29T15:33:14;30.00;53.50
25582;DHT22;13462;50.764;4.332;2022-07-29T15:35:39;30.00;53.40
25582;DHT22;13462;50.764;4.332;2022-07-29T15:38:05;29.60;55.60
25582;DHT22;13462;50.764;4.332;2022-07-29T15:40:30;29.50;56.50
25582;DHT22;13462;50.764;4.332;2022-07-29T15:42:56;29.80;54.10
25582;DHT22;13462;50.764;4.332;2022-07-29T15:45:25;29.90;53.70
25582;DHT22;13462;50.764;4.332;2022-07-29T15:47:51;29.70;54.00
25582;DHT22;13462;50.764;4.332;2022-07-29T15:50:17;29.60;54.30
25582;DHT22;13462;50.764;4.332;2022-07-29T15:52:44;29.00;54.60
25582;DHT22;13462;50.764;4.332;2022-07-29T15:55:10;28.40;56.20
25582;DHT22;13462;50.764;4.332;2022-07-29T15:57:35;28.40;56.90
25582;DHT22;13462;50.764;4.332;2022-07-29T16:00:03;28.50;57.00
25582;DHT22;13462;50.764;4.332;2022-07-29T16:02:29;28.60;56.60
25582;DHT22;13462;50.764;4.332;2022-07-29T16:04:54;28.30;57.60
25582;DHT22;13462;50.764;4.332;2022-07-29T16:07:20;28.20;57.40
25582;DHT22;13462;50.764;4.332;2022-07-29T16:09:46;28.20;57.70
25582;DHT22;13462;50.764;4.332;2022-07-29T16:12:11;28.10;56.60
25582;DHT22;13462;50.764;4.332;2022-07-29T16:14:37;28.30;59.00
25582;DHT22;13462;50.764;4.332;2022-07-29T16:17:03;28.50;56.20
25582;DHT22;13462;50.764;4.332;2022-07-29T16:19:29;28.60;55.40
25582;DHT22;13462;50.764;4.332;2022-07-29T16:21:55;28.50;57.10
25582;DHT22;13462;50.764;4.332;2022-07-29T16:24:20;28.60;58.70